sensor_id;sensor_type;location;lat;lon;timestamp;temperature;humidity
21823;DHT22;11074;48.596;9.238;2023-02-08T00:00:29;0.30;99.90
21823;DHT22;11074;48.596;9.238;2023-02-08T00:02:55;0.30;99.90
21823;DHT22;11074;48.596;9.238;2023-02-08T00:05:21;0.30;99.90
21823;DHT22;11074;48.596;9.238;2023-02-08T00:07:46;0.00;99.90
21823;DHT22;11074;48.596;9.238;2023-02-08T00:10:12;0.00;99.90
21823;DHT22;11074;48.596;9.238;2023-02-08T00:12:38;0.10;99.90
21823;DHT22;11074;48.596;9.238;2023-02-08T00:15:04;0.10;99.90
21823;DHT22;11074;48.596;9.238;2023-02-08T00:17:30;0.10;99.90
21823;DHT22;11074;48.596;9.238;2023-02-08T00:19:56;0.10;99.90
21823;DHT22;11074;48.596;9.238;2023-02-08T00:22:22;0.10;99.90
21823;DHT22;11074;48.596;9.238;2023-02-08T00:24:49;0.10;99.90
21823;DHT22;11074;48.596;9.238;2023-02-08T00:27:16;0.10;99.90
21823;DHT22;11074;48.596;9.238;2023-02-08T00:29:42;0.10;99.90
21823;DHT22;11074;48.596;9.238;2023-02-08T00:32:08;0.10;99.90
21823;DHT22;11074;48.596;9.238;2023-02-08T00:34:35;0.10;99.90
21823;DHT22;11074;48.596;9.238;2023-02-08T00:37:01;0.10;99.90
21823;DHT22;11074;48.596;9.238;2023-02-08T00:39:27;-0.10;99.90
21823;DHT22;11074;48.596;9.238;2023-02-08T00:41:53;0.00;99.90
21823;DHT22;11074;48.596;9.238;2023-02-08T00:44:18;-0.10;99.90
21823;DHT22;11074;48.596;9.238;2023-02-08T00:46:44;0.00;99.90
21823;DHT22;11074;48.596;9.238;2023-02-08T00:49:10;-0.10;99.90
21823;DHT22;11074;48.596;9.238;2023-02-08T00:51:35;-0.10;99.90
21823;DHT22;11074;48.596;9.238;2023-02-08T00:54:01;-0.10;99.90
21823;DHT22;11074;48.596;9.238;2023-02-08T00:56:26;-0.10;99.90
21823;DHT22;11074;48.596;9.238;2023-02-08T00:58:52;-0.10;99.90
21823;DHT22;11074;48.596;9.238;2023-02-08T01:01:18;-0.10;99.90
21823;DHT22;11074;48.596;9.238;2023-02-08T01:03:44;-0.10;99.90
21823;DHT22;11074;48.596;9.238;2023-02-08T01:06:13;-0.10;99.90
21823;DHT22;11074;48.596;9.238;2023-02-08T01:08:40;-0.10;99.90
21823;DHT22;11074;48.596;9.238;2023-02-08T01:11:09;-0.20;99.90
21823;DHT22;11074;48.596;9.238;2023-02-08T01:13:37;-0.20;99.90
21823;DHT22;11074;48.596;9.238;2023-02-08T01:16:11;-0.20;99.90
21823;DHT22;11074;48.596;9.238;2023-02-08T01:18:40;-0.20;99.90
21823;DHT22;11074;48.596;9.238;2023-02-08T01:21:09;-0.20;99.90
21823;DHT22;11074;48.596;9.238;2023-02-08T01:23:39;-0.20;99.90
21823;DHT22;11074;48.596;9.238;2023-02-08T01:26:07;-0.30;99.90
21823;DHT22;11074;48.596;9.238;2023-02-08T01:28:34;-0.30;99.90
21823;DHT22;11074;48.596;9.238;2023-02-08T01:31:09;-0.30;99.90
21823;DHT22;11074;48.596;9.238;2023-02-08T01:33:37;-0.30;99.90
21823;DHT22;11074;48.596;9.238;2023-02-08T01:36:04;-0.30;99.90
21823;DHT22;11074;48.596;9.238;2023-02-08T01:38:31;-0.30;99.90
21823;DHT22;11074;48.596;9.238;2023-02-08T01:40:58;-0.30;99.90
21823;DHT22;11074;48.596;9.238;2023-02-08T01:43:28;-0.30;99.90
21823;DHT22;11074;48.596;9.238;2023-02-08T01:45:56;-0.30;99.90
21823;DHT22;11074;48.596;9.238;2023-02-08T01:48:23;-0.30;99.90
21823;DHT22;11074;48.596;9.238;2023-02-08T01:53:25;-0.30;99.90
21823;DHT22;11074;48.596;9.238;2023-02-08T01:55:56;-0.30;99.90
21823;DHT22;11074;48.596;9.238;2023-02-08T01:58:25;-0.40;99.90
21823;DHT22;11074;48.596;9.238;2023-02-08T02:00:53;-0.40;99.90
21823;DHT22;11074;48.596;9.238;2023-02-08T02:03:21;-0.40;99.90
21823;DHT22;11074;48.596;9.238;2023-02-08T02:05:54;-0.40;99.90
21823;DHT22;11074;48.596;9.238;2023-02-08T02:08:25;-0.50;99.90
21823;DHT22;11074;48.596;9.238;2023-02-08T02:10:51;-0.50;99.90
21823;DHT22;11074;48.596;9.238;2023-02-08T02:13:20;-0.50;99.90
21823;DHT22;11074;48.596;9.238;2023-02-08T02:15:49;-0.50;99.90
21823;DHT22;11074;48.596;9.238;2023-02-08T02:18:22;-0.50;99.90
21823;DHT22;11074;48.596;9.238;2023-02-08T02:20:59;-0.50;99.90
21823;DHT22;11074;48.596;9.238;2023-02-08T02:32:37;-0.60;99.90
21823;DHT22;11074;48.596;9.238;2023-02-08T02:38:17;-0.60;99.90
21823;DHT22;11074;48.596;9.238;2023-02-08T02:43:34;-0.70;99.90
21823;DHT22;11074;48.596;9.238;2023-02-08T02:47:07;-0.70;99.90
21823;DHT22;11074;48.596;9.238;2023-02-08T02:49:54;-0.70;99.90
21823;DHT22;11074;48.596;9.238;2023-02-08T02:55:53;-0.70;99.90
21823;DHT22;11074;48.596;9.238;2023-02-08T02:58:26;-0.80;99.90
21823;DHT22;11074;48.596;9.238;2023-02-08T03:00:56;-0.80;99.90
21823;DHT22;11074;48.596;9.238;2023-02-08T03:03:25;-0.80;99.90
21823;DHT22;11074;48.596;9.238;2023-02-08T03:05:58;-0.90;99.90
21823;DHT22;11074;48.596;9.238;2023-02-08T03:09:03;-0.90;99.90
21823;DHT22;11074;48.596;9.238;2023-02-08T03:11:56;-0.90;99.90
21823;DHT22;11074;48.596;9.238;2023-02-08T03:14:45;-0.90;99.90
21823;DHT22;11074;48.596;9.238;2023-02-08T03:20:26;-0.90;99.90
21823;DHT22;11074;48.596;9.238;2023-02-08T03:23:25;-0.90;99.90
21823;DHT22;11074;48.596;9.238;2023-02-08T03:26:34;-1.00;99.90
21823;DHT22;11074;48.596;9.238;2023-02-08T03:31:51;-1.00;99.90
21823;DHT22;11074;48.596;9.238;2023-02-08T03:34:43;-1.10;99.90
21823;DHT22;11074;48.596;9.238;2023-02-08T03:37:23;-1.10;99.90
21823;DHT22;11074;48.596;9.238;2023-02-08T03:40:06;-1.10;99.90
21823;DHT22;11074;48.596;9.238;2023-02-08T03:42:39;-1.00;99.90
21823;DHT22;11074;48.596;9.238;2023-02-08T03:45:20;-1.10;99.90
21823;DHT22;11074;48.596;9.238;2023-02-08T03:47:52;-1.10;99.90
21823;DHT22;11074;48.596;9.238;2023-02-08T03:50:22;-1.10;99.90
21823;DHT22;11074;48.596;9.238;2023-02-08T03:52:49;-1.10;99.90
21823;DHT22;11074;48.596;9.238;2023-02-08T03:55:21;-1.10;99.90
21823;DHT22;11074;48.596;9.238;2023-02-08T04:00:22;-1.10;99.90
21823;DHT22;11074;48.596;9.238;2023-02-08T04:03:14;-1.20;99.90
21823;DHT22;11074;48.596;9.238;2023-02-08T04:05:53;-1.20;99.90
21823;DHT22;11074;48.596;9.238;2023-02-08T04:08:29;-1.20;99.90
21823;DHT22;11074;48.596;9.238;2023-02-08T04:10:55;-1.20;99.90
21823;DHT22;11074;48.596;9.238;2023-02-08T04:13:20;-1.20;99.90
21823;DHT22;11074;48.596;9.238;2023-02-08T04:15:46;-1.20;99.90
21823;DHT22;11074;48.596;9.238;2023-02-08T04:18:12;-1.20;99.90
21823;DHT22;11074;48.596;9.238;2023-02-08T04:20:37;-1.30;99.90
21823;DHT22;11074;48.596;9.238;2023-02-08T04:23:03;-1.40;99.90
21823;DHT22;11074;48.596;9.238;2023-02-08T04:25:29;-1.40;99.90
21823;DHT22;11074;48.596;9.238;2023-02-08T04:27:54;-1.40;99.90
21823;DHT22;11074;48.596;9.238;2023-02-08T04:30:20;-1.40;99.90
21823;DHT22;11074;48.596;9.238;2023-02-08T04:32:46;-1.40;99.90
21823;DHT22;11074;48.596;9.238;2023-02-08T04:35:11;-1.40;99.90
21823;DHT22;11074;48.596;9.238;2023-02-08T04:37:37;-1.40;99.90
21823;DHT22;11074;48.596;9.238;2023-02-08T04:40:03;-1.40;99.90
21823;DHT22;11074;48.596;9.238;2023-02-08T04:42:29;-1.40;99.90
21823;DHT22;11074;48.596;9.238;2023-02-08T04:44:55;-1.40;99.90
21823;DHT22;11074;48.596;9.238;2023-02-08T04:47:20;-1.50;99.90
21823;DHT22;11074;48.596;9.238;2023-02-08T04:49:46;-1.50;99.90
21823;DHT22;11074;48.596;9.238;2023-02-08T04:52:11;-1.50;99.90
21823;DHT22;11074;48.596;9.238;2023-02-08T04:54:37;-1.50;99.90
21823;DHT22;11074;48.596;9.238;2023-02-08T04:57:03;-1.50;99.90
21823;DHT22;11074;48.596;9.238;2023-02-08T04:59:29;-1.50;99.90
21823;DHT22;11074;48.596;9.238;2023-02-08T05:01:54;-1.50;99.90
21823;DHT22;11074;48.596;9.238;2023-02-08T05:04:20;-1.60;99.90
21823;DHT22;11074;48.596;9.238;2023-02-08T05:06:46;-1.60;99.90
21823;DHT22;11074;48.596;9.238;2023-02-08T05:09:12;-1.50;99.90
21823;DHT22;11074;48.596;9.238;2023-02-08T05:11:37;-1.50;99.90
21823;DHT22;11074;48.596;9.238;2023-02-08T05:14:04;-1.50;99.90
21823;DHT22;11074;48.596;9.238;2023-02-08T05:16:30;-1.50;99.90
21823;DHT22;11074;48.596;9.238;2023-02-08T05:18:56;-1.60;99.90
21823;DHT22;11074;48.596;9.238;2023-02-08T05:21:22;-1.60;99.90
21823;DHT22;11074;48.596;9.238;2023-02-08T05:23:49;-1.60;99.90
21823;DHT22;11074;48.596;9.238;2023-02-08T05:26:15;-1.60;99.90
21823;DHT22;11074;48.596;9.238;2023-02-08T05:28:42;-1.60;99.90
21823;DHT22;11074;48.596;9.238;2023-02-08T05:31:21;-1.60;99.90
21823;DHT22;11074;48.596;9.238;2023-02-08T05:33:49;-1.60;99.90
21823;DHT22;11074;48.596;9.238;2023-02-08T05:36:19;-1.60;99.90
21823;DHT22;11074;48.596;9.238;2023-02-08T05:38:46;-1.60;99.90
21823;DHT22;11074;48.596;9.238;2023-02-08T05:41:11;-1.70;99.90
21823;DHT22;11074;48.596;9.238;2023-02-08T05:43:37;-1.70;99.90
21823;DHT22;11074;48.596;9.238;2023-02-08T05:46:03;-1.70;99.90
21823;DHT22;11074;48.596;9.238;2023-02-08T05:48:30;-1.80;99.90
21823;DHT22;11074;48.596;9.238;2023-02-08T05:50:56;-1.80;99.90
21823;DHT22;11074;48.596;9.238;2023-02-08T05:53:23;-1.80;99.90
21823;DHT22;11074;48.596;9.238;2023-02-08T05:55:49;-1.80;99.90
21823;DHT22;11074;48.596;9.238;2023-02-08T05:58:15;-1.80;99.90
21823;DHT22;11074;48.596;9.238;2023-02-08T06:00:42;-1.80;99.90
21823;DHT22;11074;48.596;9.238;2023-02-08T06:03:08;-1.90;99.90
21823;DHT22;11074;48.596;9.238;2023-02-08T06:05:36;-1.90;99.90
21823;DHT22;11074;48.596;9.238;2023-02-08T06:08:04;-1.90;99.90
21823;DHT22;11074;48.596;9.238;2023-02-08T06:10:30;-1.90;99.90
21823;DHT22;11074;48.596;9.238;2023-02-08T06:12:56;-1.90;99.90
21823;DHT22;11074;48.596;9.238;2023-02-08T06:15:22;-1.90;99.90
21823;DHT22;11074;48.596;9.238;2023-02-08T06:17:47;-1.90;99.90
21823;DHT22;11074;48.596;9.238;2023-02-08T06:20:13;-1.90;99.90
21823;DHT22;11074;48.596;9.238;2023-02-08T06:22:39;-2.00;99.90
21823;DHT22;11074;48.596;9.238;2023-02-08T06:25:05;-2.00;99.90
21823;DHT22;11074;48.596;9.238;2023-02-08T06:27:31;-2.00;99.90
21823;DHT22;11074;48.596;9.238;2023-02-08T06:29:56;-2.00;99.90
21823;DHT22;11074;48.596;9.238;2023-02-08T06:32:22;-2.00;99.90
21823;DHT22;11074;48.596;9.238;2023-02-08T06:34:48;-2.10;99.90
21823;DHT22;11074;48.596;9.238;2023-02-08T06:37:16;-2.20;99.90
21823;DHT22;11074;48.596;9.238;2023-02-08T06:39:42;-2.20;99.90
21823;DHT22;11074;48.596;9.238;2023-02-08T06:42:08;-2.10;99.90
21823;DHT22;11074;48.596;9.238;2023-02-08T06:44:33;-2.10;99.90
21823;DHT22;11074;48.596;9.238;2023-02-08T06:46:59;-2.10;99.90
21823;DHT22;11074;48.596;9.238;2023-02-08T06:49:25;-2.10;99.90
21823;DHT22;11074;48.596;9.238;2023-02-08T06:51:50;-2.10;99.90
21823;DHT22;11074;48.596;9.238;2023-02-08T06:54:16;-2.10;99.90
21823;DHT22;11074;48.596;9.238;2023-02-08T06:56:43;-2.10;99.90
21823;DHT22;11074;48.596;9.238;2023-02-08T06:59:08;-2.10;99.90
21823;DHT22;11074;48.596;9.238;2023-02-08T07:01:34;-2.00;99.90
21823;DHT22;11074;48.596;9.238;2023-02-08T07:04:00;-2.10;99.90
21823;DHT22;11074;48.596;9.238;2023-02-08T07:06:25;-2.10;99.90
21823;DHT22;11074;48.596;9.238;2023-02-08T07:08:51;-2.10;99.90
21823;DHT22;11074;48.596;9.238;2023-02-08T07:11:18;-2.10;99.90
21823;DHT22;11074;48.596;9.238;2023-02-08T07:13:46;-2.20;99.90
21823;DHT22;11074;48.596;9.238;2023-02-08T07:16:14;-2.20;99.90
21823;DHT22;11074;48.596;9.238;2023-02-08T07:18:40;-2.20;99.90
21823;DHT22;11074;48.596;9.238;2023-02-08T07:21:06;-2.20;99.90
21823;DHT22;11074;48.596;9.238;2023-02-08T07:23:32;-2.20;99.90
21823;DHT22;11074;48.596;9.238;2023-02-08T07:26:03;-2.20;99.90
21823;DHT22;11074;48.596;9.238;2023-02-08T07:28:31;-2.20;99.90
21823;DHT22;11074;48.596;9.238;2023-02-08T07:30:57;-2.10;99.90
21823;DHT22;11074;48.596;9.238;2023-02-08T07:33:24;-2.10;99.90
21823;DHT22;11074;48.596;9.238;2023-02-08T07:35:50;-2.20;99.90
21823;DHT22;11074;48.596;9.238;2023-02-08T07:38:17;-2.20;99.90
21823;DHT22;11074;48.596;9.238;2023-02-08T07:40:45;-2.10;99.90
21823;DHT22;11074;48.596;9.238;2023-02-08T07:43:11;-2.10;99.90
21823;DHT22;11074;48.596;9.238;2023-02-08T07:45:37;-2.10;99.90
21823;DHT22;11074;48.596;9.238;2023-02-08T07:48:03;-2.10;99.90
21823;DHT22;11074;48.596;9.238;2023-02-08T07:50:28;-2.10;99.90
21823;DHT22;11074;48.596;9.238;2023-02-08T07:52:54;-2.00;99.90
21823;DHT22;11074;48.596;9.238;2023-02-08T07:55:20;-2.00;99.90
21823;DHT22;11074;48.596;9.238;2023-02-08T07:57:47;-2.00;99.90
21823;DHT22;11074;48.596;9.238;2023-02-08T08:00:15;-2.00;99.90
21823;DHT22;11074;48.596;9.238;2023-02-08T08:02:43;-2.00;99.90
21823;DHT22;11074;48.596;9.238;2023-02-08T08:05:09;-2.00;99.90
21823;DHT22;11074;48.596;9.238;2023-02-08T08:07:36;-1.90;99.90
21823;DHT22;11074;48.596;9.238;2023-02-08T08:10:02;-1.90;99.90
21823;DHT22;11074;48.596;9.238;2023-02-08T08:12:28;-1.90;99.90
21823;DHT22;11074;48.596;9.238;2023-02-08T08:14:54;-1.90;99.90
21823;DHT22;11074;48.596;9.238;2023-02-08T08:17:20;-1.90;99.90
21823;DHT22;11074;48.596;9.238;2023-02-08T08:19:46;-1.80;99.90
21823;DHT22;11074;48.596;9.238;2023-02-08T08:22:11;-1.80;99.90
21823;DHT22;11074;48.596;9.238;2023-02-08T08:24:37;-1.70;99.90
21823;DHT22;11074;48.596;9.238;2023-02-08T08:27:05;-1.70;99.90
21823;DHT22;11074;48.596;9.238;2023-02-08T08:29:33;-1.60;99.90
21823;DHT22;11074;48.596;9.238;2023-02-08T08:32:00;-1.60;99.90
21823;DHT22;11074;48.596;9.238;2023-02-08T08:34:26;-1.50;99.90
21823;DHT22;11074;48.596;9.238;2023-02-08T08:36:55;-1.50;99.90
21823;DHT22;11074;48.596;9.238;2023-02-08T08:39:22;-1.40;99.90
21823;DHT22;11074;48.596;9.238;2023-02-08T08:41:48;-1.40;99.90
21823;DHT22;11074;48.596;9.238;2023-02-08T08:44:14;-1.30;99.90
21823;DHT22;11074;48.596;9.238;2023-02-08T08:46:40;-1.20;99.90
21823;DHT22;11074;48.596;9.238;2023-02-08T08:49:05;-1.10;99.90
21823;DHT22;11074;48.596;9.238;2023-02-08T08:51:31;-1.10;99.90
21823;DHT22;11074;48.596;9.238;2023-02-08T08:54:01;-1.00;99.90
21823;DHT22;11074;48.596;9.238;2023-02-08T08:56:27;-0.90;99.90
21823;DHT22;11074;48.596;9.238;2023-02-08T08:58:53;-0.80;99.90
21823;DHT22;11074;48.596;9.238;2023-02-08T09:01:18;-0.70;99.90
21823;DHT22;11074;48.596;9.238;2023-02-08T09:03:44;-0.70;99.90
21823;DHT22;11074;48.596;9.238;2023-02-08T09:06:10;-0.60;99.90
21823;DHT22;11074;48.596;9.238;2023-02-08T09:08:35;-0.60;99.90
21823;DHT22;11074;48.596;9.238;2023-02-08T09:11:06;-0.50;99.90
21823;DHT22;11074;48.596;9.238;2023-02-08T09:13:33;-0.50;99.90
21823;DHT22;11074;48.596;9.238;2023-02-08T09:16:22;-0.40;99.90
21823;DHT22;11074;48.596;9.238;2023-02-08T09:18:49;-0.40;99.90
21823;DHT22;11074;48.596;9.238;2023-02-08T09:21:21;-0.30;99.90
21823;DHT22;11074;48.596;9.238;2023-02-08T09:23:49;-0.20;99.90
21823;DHT22;11074;48.596;9.238;2023-02-08T09:26:16;-0.20;99.90
21823;DHT22;11074;48.596;9.238;2023-02-08T09:28:44;-0.10;99.90
21823;DHT22;11074;48.596;9.238;2023-02-08T09:31:12;0.00;99.90
21823;DHT22;11074;48.596;9.238;2023-02-08T09:33:42;0.00;99.90
21823;DHT22;11074;48.596;9.238;2023-02-08T09:36:09;0.10;99.90
21823;DHT22;11074;48.596;9.238;2023-02-08T09:38:36;0.10;99.90
21823;DHT22;11074;48.596;9.238;2023-02-08T09:52:48;0.40;99.90
21823;DHT22;11074;48.596;9.238;2023-02-08T09:55:26;0.50;99.90
21823;DHT22;11074;48.596;9.238;2023-02-08T09:58:40;0.50;99.90
21823;DHT22;11074;48.596;9.238;2023-02-08T10:01:18;0.50;99.90
21823;DHT22;11074;48.596;9.238;2023-02-08T10:03:48;0.60;99.90
21823;DHT22;11074;48.596;9.238;2023-02-08T10:06:17;0.70;99.90
21823;DHT22;11074;48.596;9.238;2023-02-08T10:08:47;0.80;99.90
21823;DHT22;11074;48.596;9.238;2023-02-08T10:18:05;0.90;99.90
21823;DHT22;11074;48.596;9.238;2023-02-08T10:32:54;1.30;99.90
21823;DHT22;11074;48.596;9.238;2023-02-08T10:35:28;1.30;99.90
21823;DHT22;11074;48.596;9.238;2023-02-08T10:41:03;1.40;99.90
21823;DHT22;11074;48.596;9.238;2023-02-08T10:49:21;1.50;99.90
21823;DHT22;11074;48.596;9.238;2023-02-08T10:52:08;1.60;99.90
21823;DHT22;11074;48.596;9.238;2023-02-08T10:54:34;1.60;99.90
21823;DHT22;11074;48.596;9.238;2023-02-08T10:57:08;1.60;99.90
21823;DHT22;11074;48.596;9.238;2023-02-08T10:59:56;1.70;99.90
21823;DHT22;11074;48.596;9.238;2023-02-08T11:02:31;1.70;99.90
21823;DHT22;11074;48.596;9.238;2023-02-08T11:08:12;1.90;99.90
21823;DHT22;11074;48.596;9.238;2023-02-08T11:13:42;2.00;99.90
21823;DHT22;11074;48.596;9.238;2023-02-08T11:16:12;2.00;99.90
21823;DHT22;11074;48.596;9.238;2023-02-08T11:18:51;2.00;99.90
21823;DHT22;11074;48.596;9.238;2023-02-08T11:21:32;2.10;99.90
21823;DHT22;11074;48.596;9.238;2023-02-08T11:26:40;2.30;99.90
21823;DHT22;11074;48.596;9.238;2023-02-08T11:29:16;2.30;99.90
21823;DHT22;11074;48.596;9.238;2023-02-08T11:32:01;2.30;99.90
21823;DHT22;11074;48.596;9.238;2023-02-08T11:34:39;2.40;99.90
21823;DHT22;11074;48.596;9.238;2023-02-08T11:37:14;2.40;99.90
21823;DHT22;11074;48.596;9.238;2023-02-08T11:39:56;2.50;99.90
21823;DHT22;11074;48.596;9.238;2023-02-08T11:42:39;2.60;99.90
21823;DHT22;11074;48.596;9.238;2023-02-08T11:45:19;2.70;99.90
21823;DHT22;11074;48.596;9.238;2023-02-08T11:47:49;2.70;99.90
21823;DHT22;11074;48.596;9.238;2023-02-08T11:50:25;2.80;99.90
21823;DHT22;11074;48.596;9.238;2023-02-08T11:53:19;2.90;99.90
21823;DHT22;11074;48.596;9.238;2023-02-08T11:56:02;3.00;99.90
21823;DHT22;11074;48.596;9.238;2023-02-08T11:58:40;3.20;99.90
21823;DHT22;11074;48.596;9.238;2023-02-08T12:01:18;3.30;99.90
21823;DHT22;11074;48.596;9.238;2023-02-08T12:03:47;3.30;99.90
21823;DHT22;11074;48.596;9.238;2023-02-08T12:12:17;3.60;99.90
21823;DHT22;11074;48.596;9.238;2023-02-08T12:24:15;4.10;99.90
21823;DHT22;11074;48.596;9.238;2023-02-08T12:27:20;4.10;99.90
21823;DHT22;11074;48.596;9.238;2023-02-08T12:57:28;5.30;99.90
21823;DHT22;11074;48.596;9.238;2023-02-08T13:00:03;5.40;99.90
21823;DHT22;11074;48.596;9.238;2023-02-08T13:03:00;5.50;99.90
21823;DHT22;11074;48.596;9.238;2023-02-08T13:05:38;5.50;99.90
21823;DHT22;11074;48.596;9.238;2023-02-08T13:08:29;5.70;99.90
21823;DHT22;11074;48.596;9.238;2023-02-08T13:11:01;5.80;99.90
21823;DHT22;11074;48.596;9.238;2023-02-08T13:13:35;5.90;99.90
21823;DHT22;11074;48.596;9.238;2023-02-08T13:16:20;5.90;99.90
21823;DHT22;11074;48.596;9.238;2023-02-08T13:19:04;5.90;99.90
21823;DHT22;11074;48.596;9.238;2023-02-08T13:21:50;6.00;99.90
21823;DHT22;11074;48.596;9.238;2023-02-08T13:26:54;6.10;99.90
21823;DHT22;11074;48.596;9.238;2023-02-08T13:29:21;6.20;99.90
21823;DHT22;11074;48.596;9.238;2023-02-08T13:31:56;6.20;99.90
21823;DHT22;11074;48.596;9.238;2023-02-08T13:37:42;6.30;99.90
21823;DHT22;11074;48.596;9.238;2023-02-08T13:40:22;6.30;99.90
21823;DHT22;11074;48.596;9.238;2023-02-08T13:43:05;6.40;99.90
21823;DHT22;11074;48.596;9.238;2023-02-08T13:45:44;6.30;99.90
21823;DHT22;11074;48.596;9.238;2023-02-08T13:48:17;6.50;99.90
21823;DHT22;11074;48.596;9.238;2023-02-08T13:50:45;6.50;99.90
21823;DHT22;11074;48.596;9.238;2023-02-08T13:53:14;6.50;99.90
21823;DHT22;11074;48.596;9.238;2023-02-08T13:58:57;6.80;99.90
21823;DHT22;11074;48.596;9.238;2023-02-08T14:01:28;6.90;99.90
21823;DHT22;11074;48.596;9.238;2023-02-08T14:06:52;7.20;99.90
21823;DHT22;11074;48.596;9.238;2023-02-08T14:09:46;7.60;99.90
21823;DHT22;11074;48.596;9.238;2023-02-08T14:12:25;8.00;99.90
21823;DHT22;11074;48.596;9.238;2023-02-08T14:15:05;8.70;99.90
21823;DHT22;11074;48.596;9.238;2023-02-08T14:17:32;9.40;99.90
21823;DHT22;11074;48.596;9.238;2023-02-08T14:20:05;9.90;99.90
21823;DHT22;11074;48.596;9.238;2023-02-08T14:22:48;10.70;99.90
21823;DHT22;11074;48.596;9.238;2023-02-08T14:25:22;11.40;99.90
21823;DHT22;11074;48.596;9.238;2023-02-08T14:28:00;11.80;99.90
21823;DHT22;11074;48.596;9.238;2023-02-08T14:30:30;12.20;99.90
21823;DHT22;11074;48.596;9.238;2023-02-08T14:35:30;13.00;99.90
21823;DHT22;11074;48.596;9.238;2023-02-08T14:43:38;13.90;98.50
21823;DHT22;11074;48.596;9.238;2023-02-08T14:49:15;14.10;98.50
21823;DHT22;11074;48.596;9.238;2023-02-08T14:51:49;13.90;96.80
21823;DHT22;11074;48.596;9.238;2023-02-08T14:54:42;13.60;97.70
21823;DHT22;11074;48.596;9.238;2023-02-08T14:57:25;13.30;96.80
21823;DHT22;11074;48.596;9.238;2023-02-08T15:00:00;13.00;97.30
21823;DHT22;11074;48.596;9.238;2023-02-08T15:02:28;12.60;97.20
21823;DHT22;11074;48.596;9.238;2023-02-08T15:04:56;12.10;98.10
21823;DHT22;11074;48.596;9.238;2023-02-08T15:07:50;11.60;98.70
21823;DHT22;11074;48.596;9.238;2023-02-08T15:10:19;11.20;99.00
21823;DHT22;11074;48.596;9.238;2023-02-08T15:12:51;10.80;99.10
21823;DHT22;11074;48.596;9.238;2023-02-08T15:15:32;10.40;99.30
21823;DHT22;11074;48.596;9.238;2023-02-08T15:18:01;10.00;99.90
21823;DHT22;11074;48.596;9.238;2023-02-08T15:20:33;9.70;99.90
21823;DHT22;11074;48.596;9.238;2023-02-08T15:23:05;9.20;99.90
21823;DHT22;11074;48.596;9.238;2023-02-08T15:26:03;8.30;99.90
21823;DHT22;11074;48.596;9.238;2023-02-08T15:28:43;7.50;99.90
21823;DHT22;11074;48.596;9.238;2023-02-08T15:31:18;6.80;99.90
21823;DHT22;11074;48.596;9.238;2023-02-08T15:33:46;6.40;99.90
21823;DHT22;11074;48.596;9.238;2023-02-08T15:36:28;6.20;99.90
21823;DHT22;11074;48.596;9.238;2023-02-08T15:38:59;6.00;99.90
21823;DHT22;11074;48.596;9.238;2023-02-08T15:41:32;5.70;99.90
21823;DHT22;11074;48.596;9.238;2023-02-08T15:44:32;5.40;99.90
21823;DHT22;11074;48.596;9.238;2023-02-08T15:47:02;5.20;99.90
21823;DHT22;11074;48.596;9.238;2023-02-08T15:49:41;5.00;99.90
21823;DHT22;11074;48.596;9.238;2023-02-08T15:52:15;4.80;99.90
21823;DHT22;11074;48.596;9.238;2023-02-08T15:54:45;4.70;99.90
21823;DHT22;11074;48.596;9.238;2023-02-08T15:58:14;4.50;99.90
21823;DHT22;11074;48.596;9.238;2023-02-08T16:00:29;4.40;99.90
21823;DHT22;11074;48.596;9.238;2023-02-08T16:03:05;4.30;99.90
21823;DHT22;11074;48.596;9.238;2023-02-08T16:05:39;4.20;99.90
21823;DHT22;11074;48.596;9.238;2023-02-08T16:08:05;4.10;99.90
21823;DHT22;11074;48.596;9.238;2023-02-08T16:10:40;4.10;99.90
21823;DHT22;11074;48.596;9.238;2023-02-08T16:13:35;4.00;99.90
21823;DHT22;11074;48.596;9.238;2023-02-08T16:16:19;3.90;99.90
21823;DHT22;11074;48.596;9.238;2023-02-08T16:21:40;3.80;99.90
21823;DHT22;11074;48.596;9.238;2023-02-08T16:26:57;3.80;99.90
21823;DHT22;11074;48.596;9.238;2023-02-08T16:29:53;3.60;99.90
21823;DHT22;11074;48.596;9.238;2023-02-08T16:32:32;3.60;99.90
21823;DHT22;11074;48.596;9.238;2023-02-08T16:35:20;3.60;99.90
21823;DHT22;11074;48.596;9.238;2023-02-08T16:37:58;3.50;99.90
21823;DHT22;11074;48.596;9.238;2023-02-08T16:41:00;3.50;99.90
21823;DHT22;11074;48.596;9.238;2023-02-08T16:43:40;3.50;99.90
21823;DHT22;11074;48.596;9.238;2023-02-08T16:48:55;3.40;99.90
21823;DHT22;11074;48.596;9.238;2023-02-08T16:51:26;3.40;99.90
21823;DHT22;11074;48.596;9.238;2023-02-08T16:54:00;3.30;99.90
21823;DHT22;11074;48.596;9.238;2023-02-08T16:56:30;3.30;99.90
21823;DHT22;11074;48.596;9.238;2023-02-08T16:58:59;3.20;99.90
21823;DHT22;11074;48.596;9.238;2023-02-08T17:01:25;3.10;99.90
21823;DHT22;11074;48.596;9.238;2023-02-08T17:03:51;3.10;99.90
21823;DHT22;11074;48.596;9.238;2023-02-08T17:06:32;3.00;99.90
21823;DHT22;11074;48.596;9.238;2023-02-08T17:09:01;3.00;99.90
21823;DHT22;11074;48.596;9.238;2023-02-08T17:11:30;3.00;99.90
21823;DHT22;11074;48.596;9.238;2023-02-08T17:13:57;3.00;99.90
21823;DHT22;11074;48.596;9.238;2023-02-08T17:16:25;3.00;99.90
21823;DHT22;11074;48.596;9.238;2023-02-08T17:18:54;3.00;99.90
21823;DHT22;11074;48.596;9.238;2023-02-08T17:21:20;2.90;99.90
21823;DHT22;11074;48.596;9.238;2023-02-08T17:23:47;2.90;99.90
21823;DHT22;11074;48.596;9.238;2023-02-08T17:26:27;2.90;99.90
21823;DHT22;11074;48.596;9.238;2023-02-08T17:28:58;2.90;99.90
21823;DHT22;11074;48.596;9.238;2023-02-08T17:31:24;2.90;99.90
21823;DHT22;11074;48.596;9.238;2023-02-08T17:33:51;2.90;99.90
21823;DHT22;11074;48.596;9.238;2023-02-08T17:36:17;2.90;99.90
21823;DHT22;11074;48.596;9.238;2023-02-08T17:38:44;2.80;99.90
21823;DHT22;11074;48.596;9.238;2023-02-08T17:41:13;2.80;99.90
21823;DHT22;11074;48.596;9.238;2023-02-08T17:43:42;2.70;99.90
21823;DHT22;11074;48.596;9.238;2023-02-08T17:46:15;2.70;99.90
21823;DHT22;11074;48.596;9.238;2023-02-08T17:48:44;2.70;99.90
21823;DHT22;11074;48.596;9.238;2023-02-08T17:51:15;2.70;99.90
21823;DHT22;11074;48.596;9.238;2023-02-08T17:53:43;2.70;99.90
21823;DHT22;11074;48.596;9.238;2023-02-08T17:56:15;2.70;99.90
21823;DHT22;11074;48.596;9.238;2023-02-08T17:58:43;2.60;99.90
21823;DHT22;11074;48.596;9.238;2023-02-08T18:01:13;2.50;99.90
21823;DHT22;11074;48.596;9.238;2023-02-08T18:03:43;2.30;99.90
21823;DHT22;11074;48.596;9.238;2023-02-08T18:06:10;2.20;99.90
21823;DHT22;11074;48.596;9.238;2023-02-08T18:08:36;2.10;99.90
21823;DHT22;11074;48.596;9.238;2023-02-08T18:11:05;2.10;99.90
21823;DHT22;11074;48.596;9.238;2023-02-08T18:13:35;2.10;99.90
21823;DHT22;11074;48.596;9.238;2023-02-08T18:16:09;2.10;99.90
21823;DHT22;11074;48.596;9.238;2023-02-08T18:18:36;2.10;99.90
21823;DHT22;11074;48.596;9.238;2023-02-08T18:21:11;2.10;99.90
21823;DHT22;11074;48.596;9.238;2023-02-08T18:23:39;2.10;99.90
21823;DHT22;11074;48.596;9.238;2023-02-08T18:26:08;2.00;99.90
21823;DHT22;11074;48.596;9.238;2023-02-08T18:28:36;2.00;99.90
21823;DHT22;11074;48.596;9.238;2023-02-08T18:31:06;2.00;99.90
21823;DHT22;11074;48.596;9.238;2023-02-08T18:33:35;2.00;99.90
21823;DHT22;11074;48.596;9.238;2023-02-08T18:36:02;2.00;99.90